Nearby METAR Reports

 

KNFE - Fentress Naval, Virginia, USA
Distance from station: ENE 5mi, 7km
Updated: Fri, 05-Jun-2020 11:56am EDT
Partly cloudy
Partly cloudy
 Wind from S
Wind: S 12 mph , 19 km/h, Gust: 21 mph , 33 km/h
Temperature: 84°F , 29°C
Heat Index: 87°F , 31°C
Dew Point: 68°F , 20°C
Humidity: 58%
Barometer: 29.98 inHg , 1015.2 hPa
Clouds: Partly cloudy
Visibility: 10 miles , 16 km
Cloud details: Few Clouds 3600 ft
Few Clouds 7000 ft
Partly cloudy 11000 ft
2020/06/05 15:56 KNFE 051556Z AUTO 19010G18KT 10SM FEW036 FEW070 SCT110 29/20 A2998 RMK AO2 SLP155 T02890200
KCPK - Chesapeake, Virginia, USA
Distance from station: W 6mi, 9km
Updated: Fri, 05-Jun-2020 12:15pm EDT
Mostly cloudy
Mostly cloudy
 Wind from SSW
Wind: SSW 15 mph , 24 km/h, Gust: 22 mph , 35 km/h
Temperature: 82°F , 28°C
Heat Index: 85°F , 29°C
Dew Point: 68°F , 20°C
Humidity: 62%
Barometer: 29.98 inHg , 1015.2 hPa
Clouds: Mostly cloudy
Visibility: 10 miles , 16 km
Cloud details: Mostly cloudy 3700 ft
Mostly cloudy 4300 ft
Mostly cloudy 6000 ft
2020/06/05 16:15 KCPK 051615Z AUTO 20013G19KT 10SM BKN037 BKN043 BKN060 28/20 A2998 RMK AO2 T02820201
 
KNTU - Oceana Nas/Souce, Virginia, USA
Distance from station: NE 14mi, 23km
Updated: Fri, 05-Jun-2020 11:56am EDT
Mostly cloudy
Mostly cloudy
 Wind from SSW
Wind: SSW 15 mph , 24 km/h, Gust: 29 mph , 46 km/h
Temperature: 84°F , 29°C
Heat Index: 88°F , 31°C
Dew Point: 70°F , 21°C
Humidity: 62%
Barometer: 29.97 inHg , 1014.9 hPa
Clouds: Mostly cloudy
Visibility: 10 miles , 16 km
Cloud details: Partly cloudy 3400 ft
Mostly cloudy 4200 ft
Mostly cloudy 25000 ft
2020/06/05 15:56 KNTU 051556Z 21013G25KT 10SM SCT034 BKN042 BKN250 29/21 A2997 RMK AO2 SLP151 T02890206
KORF - Norfolk, Virginia, USA
Distance from station: N 15mi, 24km
Updated: Fri, 05-Jun-2020 11:51am EDT
Mostly cloudy
Mostly cloudy
 Wind from SSW
Wind: SSW 24 mph , 39 km/h, Gust: 30 mph , 48 km/h
Temperature: 88°F , 31°C
Heat Index: 93°F , 34°C
Dew Point: 70°F , 21°C
Humidity: 55%
Barometer: 29.97 inHg , 1014.9 hPa
Clouds: Mostly cloudy
Visibility: 10 miles , 16 km
Cloud details: Partly cloudy 3700 ft
Mostly cloudy 11000 ft
2020/06/05 15:51 KORF 051551Z 20021G26KT 10SM SCT037 BKN110 31/21 A2997 RMK AO2 PK WND 22027/1522 SLP146 T03060211
 
KPVG - Norfolk/Hampton, Virginia, USA
Distance from station: WNW 15mi, 24km
Updated: Fri, 05-Jun-2020 11:56am EDT
Mostly cloudy
Mostly cloudy
 Wind from S
Wind: S 13 mph , 20 km/h, Gust: 20 mph , 31 km/h
Barometer: 29.99 inHg , 1015.6 hPa
Clouds: Mostly cloudy
Visibility: 10 miles , 16 km
Cloud details: Mostly cloudy 3800 ft
Mostly cloudy 5500 ft
Mostly cloudy 7500 ft
2020/06/05 15:56 KPVG 051556Z AUTO 19011G17KT 10SM BKN038 BKN055 BKN075 A2999 RMK AO2 SLPNO FZRANO PNO $
KNGU - Norfolk Nas/Cham, Virginia, USA
Distance from station: N 16mi, 26km
Updated: Fri, 05-Jun-2020 11:59am EDT
Mostly cloudy
Mostly cloudy
 Wind from SSW
Wind: SSW 14 mph , 22 km/h, Gust: 20 mph , 31 km/h
Temperature: 84°F , 29°C
Heat Index: 88°F , 31°C
Dew Point: 70°F , 21°C
Humidity: 62%
Barometer: 29.98 inHg , 1015.2 hPa
Clouds: Mostly cloudy
Visibility: 10 miles , 16 km
Cloud details: Partly cloudy 3700 ft
Mostly cloudy 7000 ft
Mostly cloudy 25000 ft
2020/06/05 15:59 KNGU 051559Z 21012G17KT 10SM SCT037 BKN070 BKN250 29/21 A2998 RMK AO2 SLP153 T02940211
 
KSFQ - Suffolk, Virginia, USA
Distance from station: W 21mi, 34km
Updated: Fri, 05-Jun-2020 12:15pm EDT
Light rain, Overcast
Light rain, Overcast
 Wind from SSW
Wind: SSW 13 mph , 20 km/h, Gust: 22 mph , 35 km/h
Temperature: 81°F , 27°C
Heat Index: 85°F , 29°C
Dew Point: 70°F , 21°C
Humidity: 70%
Barometer: 29.99 inHg , 1015.6 hPa
Summary: Light rain
Clouds: Overcast
Visibility: 10 miles , 16 km
Cloud details: Partly cloudy 3500 ft
Mostly cloudy 4400 ft
Overcast 9000 ft
2020/06/05 16:15 KSFQ 051615Z AUTO 20011G19KT 10SM -RA SCT035 BKN044 OVC090 27/21 A2999 RMK AO2 T02730214
KONX - Currituck, North Carolina, USA
Distance from station: SSE 22mi, 36km
Updated: Fri, 05-Jun-2020 12:15pm EDT
Mostly cloudy
Mostly cloudy
 Wind from SSE
Wind: SSE 7 mph , 11 km/h
Temperature: 75°F , 24°C
Dew Point: 72°F , 22°C
Humidity: 89%
Barometer: 29.98 inHg , 1015.2 hPa
Clouds: Mostly cloudy
Visibility: 10 miles , 16 km
Cloud details: Partly cloudy 4400 ft
Partly cloudy 6500 ft
Mostly cloudy 10000 ft
2020/06/05 16:15 KONX 051615Z AUTO 16006KT 10SM SCT044 SCT065 BKN100 24/22 A2998 RMK AO2 T02440224
 
KLFI - Langley Afb/Hamp, Virginia, USA
Distance from station: NNW 28mi, 45km
Updated: Fri, 05-Jun-2020 11:56am EDT
Mostly cloudy
Mostly cloudy
 Wind from SSW
Wind: SSW 14 mph , 22 km/h
Temperature: 82°F , 28°C
Heat Index: 86°F , 30°C
Dew Point: 72°F , 22°C
Humidity: 70%
Barometer: 29.98 inHg , 1015.2 hPa
Clouds: Mostly cloudy
Visibility: 10 miles , 16 km
Cloud details: Mostly cloudy 3700 ft
Mostly cloudy 10000 ft
2020/06/05 15:56 KLFI 051556Z 20012KT 10SM BKN037 BKN100 28/22 A2998 RMK AO2A SLP158 T02820217 $
KECG - Elizabeth City, North Carolina, USA
Distance from station: S 29mi, 46km
Updated: Fri, 05-Jun-2020 11:54am EDT
Few Clouds
Few Clouds
 Wind from S
Wind: S 16 mph , 26 km/h, Gust: 20 mph , 31 km/h
Temperature: 86°F , 30°C
Heat Index: 93°F , 34°C
Dew Point: 73°F , 23°C
Humidity: 66%
Barometer: 30.00 inHg , 1015.9 hPa
Clouds: Few Clouds
Visibility: 10 miles , 16 km
Cloud details: Few Clouds 2500 ft
Few Clouds 2900 ft
Few Clouds 3500 ft
2020/06/05 15:54 KECG 051554Z 19014G17KT 10SM FEW025 FEW029 FEW035 30/23 A3000 RMK AO2 SLP158 T03000233
 
KPHF - Newport News, Virginia, USA
Distance from station: NNW 35mi, 56km
Updated: Fri, 05-Jun-2020 11:54am EDT
Mostly cloudy
Mostly cloudy
 Wind from SSW
Wind: SSW 12 mph , 19 km/h, Gust: 25 mph , 41 km/h
Temperature: 86°F , 30°C
Heat Index: 91°F , 33°C
Dew Point: 70°F , 21°C
Humidity: 59%
Barometer: 29.97 inHg , 1014.9 hPa
Clouds: Mostly cloudy
Visibility: 10 miles , 16 km
Cloud details: Few Clouds 3300 ft
Few Clouds 4600 ft
Mostly cloudy 10000 ft
2020/06/05 15:54 KPHF 051554Z 20010G22KT 10SM FEW033 FEW046 BKN100 30/21 A2997 RMK AO2 SLP147 T03000211
KFAF - Ft Eustis/Felker, Virginia, USA
Distance from station: NW 37mi, 60km
Updated: Fri, 05-Jun-2020 11:56am EDT
Partly cloudy
Partly cloudy
 Wind from S
Wind: S 9 mph , 15 km/h
Temperature: 82°F , 28°C
Heat Index: 86°F , 30°C
Dew Point: 72°F , 22°C
Humidity: 70%
Barometer: 29.95 inHg , 1014.2 hPa
Clouds: Partly cloudy
Visibility: 10 miles , 16 km
Cloud details: Partly cloudy 4300 ft
Partly cloudy 9000 ft
Partly cloudy 12000 ft
2020/06/05 15:56 KFAF 051556Z 19008KT 10SM SCT043 SCT090 SCT120 28/22 A2995 RMK AO2A SLP145 T02840216 $
 
KFKN - Franklin/J B Ros, Virginia, USA
Distance from station: W 38mi, 61km
Updated: Fri, 05-Jun-2020 12:15pm EDT
Overcast
Overcast
 Wind from SSW
Wind: SSW 9 mph , 15 km/h, Gust: 23 mph , 37 km/h
Temperature: 81°F , 27°C
Heat Index: 84°F , 29°C
Dew Point: 68°F , 20°C
Humidity: 66%
Barometer: 29.98 inHg , 1015.2 hPa
Clouds: Overcast
Visibility: 10 miles , 16 km
Cloud details: Partly cloudy 3400 ft
Mostly cloudy 5000 ft
Overcast 12000 ft
2020/06/05 16:15 KFKN 051615Z AUTO 20008G20KT 10SM SCT034 BKN050 OVC120 27/20 A2998 RMK AO2 T02710204
KJGG - Williamsburg, Virginia, USA
Distance from station: NW 47mi, 76km
Updated: Fri, 05-Jun-2020 12:15pm EDT
Clear
Clear
 Wind from S
Wind: S 12 mph , 19 km/h, Gust: 17 mph , 28 km/h
Temperature: 84°F , 29°C
Heat Index: 88°F , 31°C
Dew Point: 70°F , 21°C
Humidity: 62%
Barometer: 29.97 inHg , 1014.9 hPa
Clouds: Clear
Visibility: 10 miles , 16 km
2020/06/05 16:15 KJGG 051615Z AUTO 19010G15KT 160V250 10SM CLR 29/21 A2997 RMK AO1
 
KAKQ - Norfolk/Wakefld, Virginia, USA
Distance from station: WNW 48mi, 78km
Updated: Fri, 05-Jun-2020 11:54am EDT
Mostly cloudy
Mostly cloudy
 Wind from SSW
Wind: SSW 12 mph , 19 km/h, Gust: 20 mph , 31 km/h
Temperature: 82°F , 28°C
Heat Index: 86°F , 30°C
Dew Point: 70°F , 21°C
Humidity: 66%
Barometer: 29.97 inHg , 1014.9 hPa
Clouds: Mostly cloudy
Visibility: 10 miles , 16 km
Cloud details: Few Clouds 3000 ft
Partly cloudy 4400 ft
Mostly cloudy 8000 ft
2020/06/05 15:54 KAKQ 051554Z AUTO 20010G17KT 150V230 10SM FEW030 SCT044 BKN080 28/21 A2997 RMK AO2 SLP147 T02830206
KEDE - Edenton, North Carolina, USA
Distance from station: SSW 50mi, 80km
Updated: Fri, 05-Jun-2020 12:15pm EDT
Overcast
Overcast
 Wind from SSW
Wind: SSW 13 mph , 20 km/h, Gust: 17 mph , 28 km/h
Temperature: 84°F , 29°C
Heat Index: 92°F , 33°C
Dew Point: 75°F , 24°C
Humidity: 74%
Barometer: 30.00 inHg , 1015.9 hPa
Clouds: Overcast
Visibility: 10 miles , 16 km
Cloud details: Partly cloudy 3000 ft
Partly cloudy 3400 ft
Overcast 9000 ft
2020/06/05 16:15 KEDE 051615Z AUTO 20011G15KT 10SM SCT030 SCT034 OVC090 29/24 A3000 RMK AO2 T02910239